sensor_id;sensor_type;location;lat;lon;timestamp;temperature;humidity
9861;DHT22;4969;52.304;4.968;2022-09-21T00:00:26;19.24;62.74
9861;DHT22;4969;52.304;4.968;2022-09-21T00:02:55;19.02;63.00
9861;DHT22;4969;52.304;4.968;2022-09-21T00:05:24;18.90;63.24
9861;DHT22;4969;52.304;4.968;2022-09-21T00:07:51;18.82;63.37
9861;DHT22;4969;52.304;4.968;2022-09-21T00:10:18;18.85;63.40
9861;DHT22;4969;52.304;4.968;2022-09-21T00:12:45;18.86;63.28
9861;DHT22;4969;52.304;4.968;2022-09-21T00:15:14;18.72;63.56
9861;DHT22;4969;52.304;4.968;2022-09-21T00:17:42;18.82;63.39
9861;DHT22;4969;52.304;4.968;2022-09-21T00:20:09;18.83;63.33
9861;DHT22;4969;52.304;4.968;2022-09-21T00:22:37;18.76;63.31
9861;DHT22;4969;52.304;4.968;2022-09-21T00:25:06;18.76;63.35
9861;DHT22;4969;52.304;4.968;2022-09-21T00:27:33;18.72;63.46
9861;DHT22;4969;52.304;4.968;2022-09-21T00:30:00;18.43;63.63
9861;DHT22;4969;52.304;4.968;2022-09-21T00:32:29;18.04;64.40
9861;DHT22;4969;52.304;4.968;2022-09-21T00:34:57;17.99;64.94
9861;DHT22;4969;52.304;4.968;2022-09-21T00:37:25;17.85;65.15
9861;DHT22;4969;52.304;4.968;2022-09-21T00:39:54;17.92;65.37
9861;DHT22;4969;52.304;4.968;2022-09-21T00:42:24;18.03;64.99
9861;DHT22;4969;52.304;4.968;2022-09-21T00:44:54;18.24;64.88
9861;DHT22;4969;52.304;4.968;2022-09-21T00:47:22;18.41;64.43
9861;DHT22;4969;52.304;4.968;2022-09-21T00:49:54;18.47;64.20
9861;DHT22;4969;52.304;4.968;2022-09-21T00:52:23;18.58;63.92
9861;DHT22;4969;52.304;4.968;2022-09-21T00:54:53;18.65;63.71
9861;DHT22;4969;52.304;4.968;2022-09-21T00:57:23;18.67;63.54
9861;DHT22;4969;52.304;4.968;2022-09-21T00:59:53;18.72;63.43
9861;DHT22;4969;52.304;4.968;2022-09-21T01:02:22;18.78;63.24
9861;DHT22;4969;52.304;4.968;2022-09-21T01:04:51;18.78;63.10
9861;DHT22;4969;52.304;4.968;2022-09-21T01:07:22;18.76;63.02
9861;DHT22;4969;52.304;4.968;2022-09-21T01:09:55;18.79;62.95
9861;DHT22;4969;52.304;4.968;2022-09-21T01:12:35;18.78;62.15
9861;DHT22;4969;52.304;4.968;2022-09-21T01:15:16;18.82;61.87
9861;DHT22;4969;52.304;4.968;2022-09-21T01:17:50;18.78;62.14
9861;DHT22;4969;52.304;4.968;2022-09-21T01:20:36;18.80;61.74
9861;DHT22;4969;52.304;4.968;2022-09-21T01:23:15;18.75;61.88
9861;DHT22;4969;52.304;4.968;2022-09-21T01:26:00;18.72;61.55
9861;DHT22;4969;52.304;4.968;2022-09-21T01:31:27;18.54;63.05
9861;DHT22;4969;52.304;4.968;2022-09-21T01:34:01;18.41;63.03
9861;DHT22;4969;52.304;4.968;2022-09-21T01:36:32;18.47;63.56
9861;DHT22;4969;52.304;4.968;2022-09-21T01:39:03;18.64;63.21
9861;DHT22;4969;52.304;4.968;2022-09-21T01:41:32;18.69;63.01
9861;DHT22;4969;52.304;4.968;2022-09-21T01:44:05;18.71;62.40
9861;DHT22;4969;52.304;4.968;2022-09-21T01:46:36;18.62;62.84
9861;DHT22;4969;52.304;4.968;2022-09-21T01:49:08;18.65;62.98
9861;DHT22;4969;52.304;4.968;2022-09-21T01:51:41;18.62;62.51
9861;DHT22;4969;52.304;4.968;2022-09-21T01:54:13;18.55;62.93
9861;DHT22;4969;52.304;4.968;2022-09-21T01:56:46;18.61;63.08
9861;DHT22;4969;52.304;4.968;2022-09-21T01:59:20;18.73;62.84
9861;DHT22;4969;52.304;4.968;2022-09-21T02:01:52;18.80;62.45
9861;DHT22;4969;52.304;4.968;2022-09-21T02:04:19;18.83;62.56
9861;DHT22;4969;52.304;4.968;2022-09-21T02:06:46;18.72;62.55
9861;DHT22;4969;52.304;4.968;2022-09-21T02:09:16;18.67;62.78
9861;DHT22;4969;52.304;4.968;2022-09-21T02:11:42;18.69;62.83
9861;DHT22;4969;52.304;4.968;2022-09-21T02:14:11;18.67;62.74
9861;DHT22;4969;52.304;4.968;2022-09-21T02:16:40;18.72;62.68
9861;DHT22;4969;52.304;4.968;2022-09-21T02:19:14;18.69;62.26
9861;DHT22;4969;52.304;4.968;2022-09-21T02:21:58;18.68;61.32
9861;DHT22;4969;52.304;4.968;2022-09-21T02:24:36;18.64;61.98
9861;DHT22;4969;52.304;4.968;2022-09-21T02:27:05;18.67;62.73
9861;DHT22;4969;52.304;4.968;2022-09-21T02:29:46;18.71;61.84
9861;DHT22;4969;52.304;4.968;2022-09-21T02:32:24;18.78;61.47
9861;DHT22;4969;52.304;4.968;2022-09-21T02:34:58;18.75;61.80
9861;DHT22;4969;52.304;4.968;2022-09-21T02:37:32;18.76;62.26
9861;DHT22;4969;52.304;4.968;2022-09-21T02:40:03;18.76;62.34
9861;DHT22;4969;52.304;4.968;2022-09-21T02:42:37;18.78;62.25
9861;DHT22;4969;52.304;4.968;2022-09-21T02:45:10;18.82;62.25
9861;DHT22;4969;52.304;4.968;2022-09-21T02:47:45;18.76;62.12
9861;DHT22;4969;52.304;4.968;2022-09-21T02:50:18;18.78;62.13
9861;DHT22;4969;52.304;4.968;2022-09-21T02:52:45;18.76;62.29
9861;DHT22;4969;52.304;4.968;2022-09-21T02:55:15;18.62;62.33
9861;DHT22;4969;52.304;4.968;2022-09-21T02:57:43;18.62;62.60
9861;DHT22;4969;52.304;4.968;2022-09-21T03:00:14;18.71;62.42
9861;DHT22;4969;52.304;4.968;2022-09-21T03:02:42;18.82;62.15
9861;DHT22;4969;52.304;4.968;2022-09-21T03:05:10;18.88;62.04
9861;DHT22;4969;52.304;4.968;2022-09-21T03:07:39;18.86;62.09
9861;DHT22;4969;52.304;4.968;2022-09-21T03:10:07;18.86;61.96
9861;DHT22;4969;52.304;4.968;2022-09-21T03:12:33;18.93;61.92
9861;DHT22;4969;52.304;4.968;2022-09-21T03:15:00;19.04;61.76
9861;DHT22;4969;52.304;4.968;2022-09-21T03:17:26;19.14;61.30
9861;DHT22;4969;52.304;4.968;2022-09-21T03:19:53;18.93;61.53
9861;DHT22;4969;52.304;4.968;2022-09-21T03:22:20;18.58;62.12
9861;DHT22;4969;52.304;4.968;2022-09-21T03:24:48;18.10;62.85
9861;DHT22;4969;52.304;4.968;2022-09-21T03:27:16;17.95;63.85
9861;DHT22;4969;52.304;4.968;2022-09-21T03:29:43;18.14;63.65
9861;DHT22;4969;52.304;4.968;2022-09-21T03:32:10;18.35;63.25
9861;DHT22;4969;52.304;4.968;2022-09-21T03:34:38;18.48;62.95
9861;DHT22;4969;52.304;4.968;2022-09-21T03:37:05;18.61;62.65
9861;DHT22;4969;52.304;4.968;2022-09-21T03:39:32;18.67;62.51
9861;DHT22;4969;52.304;4.968;2022-09-21T03:42:00;18.69;62.29
9861;DHT22;4969;52.304;4.968;2022-09-21T03:44:28;18.75;62.16
9861;DHT22;4969;52.304;4.968;2022-09-21T03:46:54;18.71;62.14
9861;DHT22;4969;52.304;4.968;2022-09-21T03:49:24;18.68;62.17
9861;DHT22;4969;52.304;4.968;2022-09-21T03:51:51;18.68;62.13
9861;DHT22;4969;52.304;4.968;2022-09-21T03:54:17;18.68;62.18
9861;DHT22;4969;52.304;4.968;2022-09-21T03:56:44;18.67;62.15
9861;DHT22;4969;52.304;4.968;2022-09-21T03:59:12;18.69;62.13
9861;DHT22;4969;52.304;4.968;2022-09-21T04:01:38;18.67;61.99
9861;DHT22;4969;52.304;4.968;2022-09-21T04:04:05;18.67;62.03
9861;DHT22;4969;52.304;4.968;2022-09-21T04:06:32;18.61;62.10
9861;DHT22;4969;52.304;4.968;2022-09-21T04:08:58;18.67;62.12
9861;DHT22;4969;52.304;4.968;2022-09-21T04:11:27;18.72;61.99
9861;DHT22;4969;52.304;4.968;2022-09-21T04:13:54;18.67;61.89
9861;DHT22;4969;52.304;4.968;2022-09-21T04:16:23;18.61;62.13
9861;DHT22;4969;52.304;4.968;2022-09-21T04:18:50;18.75;61.89
9861;DHT22;4969;52.304;4.968;2022-09-21T04:21:17;18.78;61.77
9861;DHT22;4969;52.304;4.968;2022-09-21T04:23:44;18.76;61.75
9861;DHT22;4969;52.304;4.968;2022-09-21T04:26:22;18.69;60.94
9861;DHT22;4969;52.304;4.968;2022-09-21T04:28:49;18.75;61.74
9861;DHT22;4969;52.304;4.968;2022-09-21T04:31:16;18.68;61.77
9861;DHT22;4969;52.304;4.968;2022-09-21T04:33:46;18.55;61.74
9861;DHT22;4969;52.304;4.968;2022-09-21T04:36:13;18.69;61.98
9861;DHT22;4969;52.304;4.968;2022-09-21T04:38:40;18.57;61.48
9861;DHT22;4969;52.304;4.968;2022-09-21T04:41:06;17.57;60.94
9861;DHT22;4969;52.304;4.968;2022-09-21T04:43:33;17.06;62.34
9861;DHT22;4969;52.304;4.968;2022-09-21T04:46:04;16.62;62.50
9861;DHT22;4969;52.304;4.968;2022-09-21T04:48:30;16.28;62.05
9861;DHT22;4969;52.304;4.968;2022-09-21T04:50:58;16.00;63.32
9861;DHT22;4969;52.304;4.968;2022-09-21T04:53:25;15.97;64.42
9861;DHT22;4969;52.304;4.968;2022-09-21T04:55:51;15.94;65.35
9861;DHT22;4969;52.304;4.968;2022-09-21T04:58:18;15.78;63.19
9861;DHT22;4969;52.304;4.968;2022-09-21T05:00:48;15.61;63.88
9861;DHT22;4969;52.304;4.968;2022-09-21T05:03:15;15.09;62.31
9861;DHT22;4969;52.304;4.968;2022-09-21T05:05:45;14.57;63.10
9861;DHT22;4969;52.304;4.968;2022-09-21T05:08:13;14.17;63.82
9861;DHT22;4969;52.304;4.968;2022-09-21T05:10:43;13.71;63.95
9861;DHT22;4969;52.304;4.968;2022-09-21T05:13:09;13.48;65.52
9861;DHT22;4969;52.304;4.968;2022-09-21T05:15:36;13.28;64.90
9861;DHT22;4969;52.304;4.968;2022-09-21T05:18:02;13.05;65.36
9861;DHT22;4969;52.304;4.968;2022-09-21T05:20:29;12.91;66.91
9861;DHT22;4969;52.304;4.968;2022-09-21T05:22:59;12.82;66.71
9861;DHT22;4969;52.304;4.968;2022-09-21T05:25:27;12.73;66.72
9861;DHT22;4969;52.304;4.968;2022-09-21T05:27:54;12.72;67.58
9861;DHT22;4969;52.304;4.968;2022-09-21T05:30:21;13.13;68.81
9861;DHT22;4969;52.304;4.968;2022-09-21T05:32:54;13.14;66.91
9861;DHT22;4969;52.304;4.968;2022-09-21T05:35:27;12.86;67.24
9861;DHT22;4969;52.304;4.968;2022-09-21T05:38:02;12.59;68.30
9861;DHT22;4969;52.304;4.968;2022-09-21T05:40:34;12.72;69.55
9861;DHT22;4969;52.304;4.968;2022-09-21T05:43:01;12.93;69.38
9861;DHT22;4969;52.304;4.968;2022-09-21T05:45:28;13.09;69.36
9861;DHT22;4969;52.304;4.968;2022-09-21T05:48:04;13.03;69.28
9861;DHT22;4969;52.304;4.968;2022-09-21T05:50:48;13.03;68.76
9861;DHT22;4969;52.304;4.968;2022-09-21T05:53:38;12.97;69.23
9861;DHT22;4969;52.304;4.968;2022-09-21T05:56:13;13.10;70.01
9861;DHT22;4969;52.304;4.968;2022-09-21T05:58:52;13.16;69.46
9861;DHT22;4969;52.304;4.968;2022-09-21T06:01:34;12.91;69.70
9861;DHT22;4969;52.304;4.968;2022-09-21T06:04:03;12.73;71.07
9861;DHT22;4969;52.304;4.968;2022-09-21T06:06:30;13.19;72.39
9861;DHT22;4969;52.304;4.968;2022-09-21T06:08:56;14.02;73.68
9861;DHT22;4969;52.304;4.968;2022-09-21T06:11:24;14.18;72.12
9861;DHT22;4969;52.304;4.968;2022-09-21T06:13:51;13.99;70.69
9861;DHT22;4969;52.304;4.968;2022-09-21T06:16:17;13.74;70.47
9861;DHT22;4969;52.304;4.968;2022-09-21T06:18:44;13.55;71.10
9861;DHT22;4969;52.304;4.968;2022-09-21T06:21:10;13.92;72.92
9861;DHT22;4969;52.304;4.968;2022-09-21T06:23:37;14.10;72.34
9861;DHT22;4969;52.304;4.968;2022-09-21T06:26:04;13.99;71.14
9861;DHT22;4969;52.304;4.968;2022-09-21T06:28:32;13.79;71.24
9861;DHT22;4969;52.304;4.968;2022-09-21T06:30:58;13.71;71.47
9861;DHT22;4969;52.304;4.968;2022-09-21T06:33:25;13.69;71.76
9861;DHT22;4969;52.304;4.968;2022-09-21T06:35:52;13.79;72.27
9861;DHT22;4969;52.304;4.968;2022-09-21T06:38:19;13.71;71.30
9861;DHT22;4969;52.304;4.968;2022-09-21T06:40:46;13.41;71.62
9861;DHT22;4969;52.304;4.968;2022-09-21T06:43:13;13.44;72.45
9861;DHT22;4969;52.304;4.968;2022-09-21T06:45:41;13.50;73.06
9861;DHT22;4969;52.304;4.968;2022-09-21T06:48:07;13.58;72.79
9861;DHT22;4969;52.304;4.968;2022-09-21T06:50:34;13.58;72.61
9861;DHT22;4969;52.304;4.968;2022-09-21T06:53:02;13.95;74.12
9861;DHT22;4969;52.304;4.968;2022-09-21T06:55:30;13.90;73.19
9861;DHT22;4969;52.304;4.968;2022-09-21T06:57:59;13.58;73.08
9861;DHT22;4969;52.304;4.968;2022-09-21T07:00:27;13.42;74.38
9861;DHT22;4969;52.304;4.968;2022-09-21T07:02:55;13.41;74.34
9861;DHT22;4969;52.304;4.968;2022-09-21T07:05:21;13.44;74.11
9861;DHT22;4969;52.304;4.968;2022-09-21T07:07:48;13.58;74.71
9861;DHT22;4969;52.304;4.968;2022-09-21T07:10:15;13.82;75.19
9861;DHT22;4969;52.304;4.968;2022-09-21T07:12:42;14.03;74.94
9861;DHT22;4969;52.304;4.968;2022-09-21T07:15:09;14.33;74.90
9861;DHT22;4969;52.304;4.968;2022-09-21T07:17:37;14.55;75.23
9861;DHT22;4969;52.304;4.968;2022-09-21T07:20:06;14.44;74.09
9861;DHT22;4969;52.304;4.968;2022-09-21T07:22:34;14.54;75.23
9861;DHT22;4969;52.304;4.968;2022-09-21T07:25:01;14.92;76.41
9861;DHT22;4969;52.304;4.968;2022-09-21T07:27:29;15.10;74.22
9861;DHT22;4969;52.304;4.968;2022-09-21T07:29:56;16.14;74.01
9861;DHT22;4969;52.304;4.968;2022-09-21T07:32:23;16.06;72.72
9861;DHT22;4969;52.304;4.968;2022-09-21T07:34:50;15.94;72.95
9861;DHT22;4969;52.304;4.968;2022-09-21T07:37:19;15.86;73.58
9861;DHT22;4969;52.304;4.968;2022-09-21T07:39:48;16.16;73.53
9861;DHT22;4969;52.304;4.968;2022-09-21T07:42:14;16.17;73.18
9861;DHT22;4969;52.304;4.968;2022-09-21T07:44:42;16.31;72.52
9861;DHT22;4969;52.304;4.968;2022-09-21T07:47:08;16.31;72.69
9861;DHT22;4969;52.304;4.968;2022-09-21T07:49:37;16.96;71.19
9861;DHT22;4969;52.304;4.968;2022-09-21T07:52:04;17.17;70.75
9861;DHT22;4969;52.304;4.968;2022-09-21T07:54:32;17.23;70.07
9861;DHT22;4969;52.304;4.968;2022-09-21T07:56:59;17.38;69.67
9861;DHT22;4969;52.304;4.968;2022-09-21T07:59:43;17.35;69.16
9861;DHT22;4969;52.304;4.968;2022-09-21T08:02:10;17.34;69.72
9861;DHT22;4969;52.304;4.968;2022-09-21T08:04:36;17.31;69.51
9861;DHT22;4969;52.304;4.968;2022-09-21T08:07:03;17.32;69.25
9861;DHT22;4969;52.304;4.968;2022-09-21T08:09:31;17.42;69.36
9861;DHT22;4969;52.304;4.968;2022-09-21T08:11:59;17.59;69.06
9861;DHT22;4969;52.304;4.968;2022-09-21T08:14:25;17.62;68.76
9861;DHT22;4969;52.304;4.968;2022-09-21T08:16:53;17.38;68.61
9861;DHT22;4969;52.304;4.968;2022-09-21T08:19:20;17.76;68.35
9861;DHT22;4969;52.304;4.968;2022-09-21T08:21:50;18.14;66.14
9861;DHT22;4969;52.304;4.968;2022-09-21T08:24:17;18.16;67.07
9861;DHT22;4969;52.304;4.968;2022-09-21T08:26:45;18.21;67.32
9861;DHT22;4969;52.304;4.968;2022-09-21T08:29:12;18.75;65.30
9861;DHT22;4969;52.304;4.968;2022-09-21T08:31:40;18.76;65.01
9861;DHT22;4969;52.304;4.968;2022-09-21T08:34:06;19.02;64.33
9861;DHT22;4969;52.304;4.968;2022-09-21T08:36:33;19.17;64.26
9861;DHT22;4969;52.304;4.968;2022-09-21T08:38:59;18.78;64.83
9861;DHT22;4969;52.304;4.968;2022-09-21T08:41:41;18.71;64.95
9861;DHT22;4969;52.304;4.968;2022-09-21T08:44:15;19.08;63.19
9861;DHT22;4969;52.304;4.968;2022-09-21T08:46:45;18.76;64.34
9861;DHT22;4969;52.304;4.968;2022-09-21T08:49:16;19.28;63.28
9861;DHT22;4969;52.304;4.968;2022-09-21T08:51:48;18.86;63.38
9861;DHT22;4969;52.304;4.968;2022-09-21T08:54:21;18.54;61.73
9861;DHT22;4969;52.304;4.968;2022-09-21T08:56:50;18.43;60.90
9861;DHT22;4969;52.304;4.968;2022-09-21T08:59:18;18.73;64.48
9861;DHT22;4969;52.304;4.968;2022-09-21T09:01:53;19.26;62.65
9861;DHT22;4969;52.304;4.968;2022-09-21T09:04:34;18.89;62.92
9861;DHT22;4969;52.304;4.968;2022-09-21T09:07:19;19.22;62.45
9861;DHT22;4969;52.304;4.968;2022-09-21T09:10:06;19.42;58.65
9861;DHT22;4969;52.304;4.968;2022-09-21T09:12:50;18.67;62.22
9861;DHT22;4969;52.304;4.968;2022-09-21T09:15:36;18.58;60.44
9861;DHT22;4969;52.304;4.968;2022-09-21T09:18:08;18.73;62.02
9861;DHT22;4969;52.304;4.968;2022-09-21T09:20:39;18.54;62.89
9861;DHT22;4969;52.304;4.968;2022-09-21T09:23:11;19.16;62.98
9861;DHT22;4969;52.304;4.968;2022-09-21T09:25:41;19.42;61.57
9861;DHT22;4969;52.304;4.968;2022-09-21T09:28:20;19.80;61.37
9861;DHT22;4969;52.304;4.968;2022-09-21T09:30:55;19.97;60.57
9861;DHT22;4969;52.304;4.968;2022-09-21T09:33:25;19.89;59.59
9861;DHT22;4969;52.304;4.968;2022-09-21T09:35:59;18.86;56.09
9861;DHT22;4969;52.304;4.968;2022-09-21T09:38:32;18.83;60.05
9861;DHT22;4969;52.304;4.968;2022-09-21T09:43:58;19.35;61.17
9861;DHT22;4969;52.304;4.968;2022-09-21T09:46:33;18.89;59.65
9861;DHT22;4969;52.304;4.968;2022-09-21T09:49:12;18.83;62.49
9861;DHT22;4969;52.304;4.968;2022-09-21T09:51:39;19.40;61.76
9861;DHT22;4969;52.304;4.968;2022-09-21T09:54:12;19.35;58.77
9861;DHT22;4969;52.304;4.968;2022-09-21T09:56:39;18.78;55.77
9861;DHT22;4969;52.304;4.968;2022-09-21T09:59:10;19.23;57.90
9861;DHT22;4969;52.304;4.968;2022-09-21T10:01:41;19.14;58.21
9861;DHT22;4969;52.304;4.968;2022-09-21T10:04:09;19.10;62.30
9861;DHT22;4969;52.304;4.968;2022-09-21T10:06:36;19.28;58.45
9861;DHT22;4969;52.304;4.968;2022-09-21T10:09:23;18.68;52.73
9861;DHT22;4969;52.304;4.968;2022-09-21T10:11:51;17.93;59.07
9861;DHT22;4969;52.304;4.968;2022-09-21T10:14:20;18.82;63.72
9861;DHT22;4969;52.304;4.968;2022-09-21T10:16:51;19.34;59.11
9861;DHT22;4969;52.304;4.968;2022-09-21T10:19:20;19.75;60.95
9861;DHT22;4969;52.304;4.968;2022-09-21T10:21:53;19.97;59.59
9861;DHT22;4969;52.304;4.968;2022-09-21T10:24:21;19.58;54.62
9861;DHT22;4969;52.304;4.968;2022-09-21T10:26:50;18.73;56.24
9861;DHT22;4969;52.304;4.968;2022-09-21T10:29:29;19.35;60.26
9861;DHT22;4969;52.304;4.968;2022-09-21T10:31:59;19.99;59.74
9861;DHT22;4969;52.304;4.968;2022-09-21T10:34:27;20.40;58.65
9861;DHT22;4969;52.304;4.968;2022-09-21T10:36:56;20.26;58.86
9861;DHT22;4969;52.304;4.968;2022-09-21T10:39:28;20.21;58.73
9861;DHT22;4969;52.304;4.968;2022-09-21T10:42:00;19.87;56.51
9861;DHT22;4969;52.304;4.968;2022-09-21T10:44:35;20.00;59.59
9861;DHT22;4969;52.304;4.968;2022-09-21T10:47:18;19.59;57.96
9861;DHT22;4969;52.304;4.968;2022-09-21T10:49:48;18.68;51.42
9861;DHT22;4969;52.304;4.968;2022-09-21T10:52:16;18.93;61.85
9861;DHT22;4969;52.304;4.968;2022-09-21T10:54:47;19.57;59.67
9861;DHT22;4969;52.304;4.968;2022-09-21T10:57:17;20.06;59.39
9861;DHT22;4969;52.304;4.968;2022-09-21T10:59:44;20.55;58.25
9861;DHT22;4969;52.304;4.968;2022-09-21T11:02:33;20.62;53.84
9861;DHT22;4969;52.304;4.968;2022-09-21T11:05:05;20.09;55.93
9861;DHT22;4969;52.304;4.968;2022-09-21T11:07:37;19.82;55.09
9861;DHT22;4969;52.304;4.968;2022-09-21T11:10:11;20.33;58.93
9861;DHT22;4969;52.304;4.968;2022-09-21T11:12:57;19.73;52.30
9861;DHT22;4969;52.304;4.968;2022-09-21T11:15:39;18.95;52.70
9861;DHT22;4969;52.304;4.968;2022-09-21T11:18:15;18.44;49.73
9861;DHT22;4969;52.304;4.968;2022-09-21T11:20:47;17.95;52.67
9861;DHT22;4969;52.304;4.968;2022-09-21T11:23:32;17.90;54.87
9861;DHT22;4969;52.304;4.968;2022-09-21T11:26:05;18.17;56.76
9861;DHT22;4969;52.304;4.968;2022-09-21T11:28:38;18.30;54.34
9861;DHT22;4969;52.304;4.968;2022-09-21T11:34:08;18.54;53.96
9861;DHT22;4969;52.304;4.968;2022-09-21T11:36:43;18.61;53.03
9861;DHT22;4969;52.304;4.968;2022-09-21T11:39:19;18.58;51.16
9861;DHT22;4969;52.304;4.968;2022-09-21T11:42:01;18.47;50.70
9861;DHT22;4969;52.304;4.968;2022-09-21T11:44:41;18.45;52.52
9861;DHT22;4969;52.304;4.968;2022-09-21T11:47:20;18.44;51.51
9861;DHT22;4969;52.304;4.968;2022-09-21T11:50:07;18.38;48.98
9861;DHT22;4969;52.304;4.968;2022-09-21T11:52:48;18.37;51.39
9861;DHT22;4969;52.304;4.968;2022-09-21T11:55:47;18.61;46.63
9861;DHT22;4969;52.304;4.968;2022-09-21T11:58:22;18.37;49.43
9861;DHT22;4969;52.304;4.968;2022-09-21T12:00:58;18.31;48.89
9861;DHT22;4969;52.304;4.968;2022-09-21T12:04:04;18.13;46.77
9861;DHT22;4969;52.304;4.968;2022-09-21T12:06:48;18.20;48.85
9861;DHT22;4969;52.304;4.968;2022-09-21T12:10:01;18.27;48.42
9861;DHT22;4969;52.304;4.968;2022-09-21T12:12:35;18.78;49.30
9861;DHT22;4969;52.304;4.968;2022-09-21T12:15:08;18.73;47.68
9861;DHT22;4969;52.304;4.968;2022-09-21T12:17:43;18.67;50.31
9861;DHT22;4969;52.304;4.968;2022-09-21T12:20:19;18.72;47.02
9861;DHT22;4969;52.304;4.968;2022-09-21T12:22:51;18.72;48.37
9861;DHT22;4969;52.304;4.968;2022-09-21T12:25:20;18.68;48.51
9861;DHT22;4969;52.304;4.968;2022-09-21T12:27:50;18.75;50.95
9861;DHT22;4969;52.304;4.968;2022-09-21T12:30:20;18.79;49.09
9861;DHT22;4969;52.304;4.968;2022-09-21T12:32:54;18.67;52.41
9861;DHT22;4969;52.304;4.968;2022-09-21T12:35:26;19.16;50.17
9861;DHT22;4969;52.304;4.968;2022-09-21T12:37:58;19.14;50.70
9861;DHT22;4969;52.304;4.968;2022-09-21T12:40:32;18.90;49.16
9861;DHT22;4969;52.304;4.968;2022-09-21T12:43:07;18.80;52.89
9861;DHT22;4969;52.304;4.968;2022-09-21T12:45:39;19.02;50.35
9861;DHT22;4969;52.304;4.968;2022-09-21T12:48:12;19.07;50.14
9861;DHT22;4969;52.304;4.968;2022-09-21T12:50:45;19.22;52.26
9861;DHT22;4969;52.304;4.968;2022-09-21T12:53:16;19.45;50.93
9861;DHT22;4969;52.304;4.968;2022-09-21T12:55:50;19.61;50.52
9861;DHT22;4969;52.304;4.968;2022-09-21T12:58:33;19.57;51.60
9861;DHT22;4969;52.304;4.968;2022-09-21T13:01:11;19.54;51.73
9861;DHT22;4969;52.304;4.968;2022-09-21T13:03:46;19.48;52.08
9861;DHT22;4969;52.304;4.968;2022-09-21T13:06:35;19.55;51.08
9861;DHT22;4969;52.304;4.968;2022-09-21T13:09:10;19.68;52.90
9861;DHT22;4969;52.304;4.968;2022-09-21T13:11:48;19.66;52.28
9861;DHT22;4969;52.304;4.968;2022-09-21T13:14:16;19.57;52.17
9861;DHT22;4969;52.304;4.968;2022-09-21T13:16:44;19.23;51.29
9861;DHT22;4969;52.304;4.968;2022-09-21T13:19:20;18.83;51.89
9861;DHT22;4969;52.304;4.968;2022-09-21T13:22:09;18.67;51.77
9861;DHT22;4969;52.304;4.968;2022-09-21T13:24:40;18.64;52.47
9861;DHT22;4969;52.304;4.968;2022-09-21T13:27:08;18.65;52.33
9861;DHT22;4969;52.304;4.968;2022-09-21T13:29:36;18.67;52.42
9861;DHT22;4969;52.304;4.968;2022-09-21T13:32:20;18.59;52.64
9861;DHT22;4969;52.304;4.968;2022-09-21T13:34:47;18.52;50.81
9861;DHT22;4969;52.304;4.968;2022-09-21T13:37:27;18.41;49.97
9861;DHT22;4969;52.304;4.968;2022-09-21T13:46:46;18.52;51.02
9861;DHT22;4969;52.304;4.968;2022-09-21T13:49:19;18.33;50.56
9861;DHT22;4969;52.304;4.968;2022-09-21T13:51:51;18.31;49.65
9861;DHT22;4969;52.304;4.968;2022-09-21T13:54:20;18.17;48.80
9861;DHT22;4969;52.304;4.968;2022-09-21T13:56:58;18.24;48.62
9861;DHT22;4969;52.304;4.968;2022-09-21T13:59:27;18.21;50.38
9861;DHT22;4969;52.304;4.968;2022-09-21T14:01:54;18.21;49.07
9861;DHT22;4969;52.304;4.968;2022-09-21T14:04:24;18.28;50.10
9861;DHT22;4969;52.304;4.968;2022-09-21T14:06:53;18.18;49.10
9861;DHT22;4969;52.304;4.968;2022-09-21T14:09:27;18.21;49.19
9861;DHT22;4969;52.304;4.968;2022-09-21T14:11:59;18.31;49.15
9861;DHT22;4969;52.304;4.968;2022-09-21T14:14:29;18.51;49.02
9861;DHT22;4969;52.304;4.968;2022-09-21T14:16:58;18.30;48.44
9861;DHT22;4969;52.304;4.968;2022-09-21T14:22:34;18.34;49.06
9861;DHT22;4969;52.304;4.968;2022-09-21T14:25:25;18.38;49.08
9861;DHT22;4969;52.304;4.968;2022-09-21T14:27:57;18.35;48.77
9861;DHT22;4969;52.304;4.968;2022-09-21T14:30:26;18.44;48.06
9861;DHT22;4969;52.304;4.968;2022-09-21T14:33:06;18.37;47.75
9861;DHT22;4969;52.304;4.968;2022-09-21T14:35:37;18.38;48.87
9861;DHT22;4969;52.304;4.968;2022-09-21T14:38:13;18.30;48.81
9861;DHT22;4969;52.304;4.968;2022-09-21T14:40:46;18.30;49.29
9861;DHT22;4969;52.304;4.968;2022-09-21T14:43:19;18.34;47.79
9861;DHT22;4969;52.304;4.968;2022-09-21T14:45:58;18.33;48.06
9861;DHT22;4969;52.304;4.968;2022-09-21T14:48:36;18.33;47.90
9861;DHT22;4969;52.304;4.968;2022-09-21T14:51:12;18.27;48.06
9861;DHT22;4969;52.304;4.968;2022-09-21T14:54:10;18.13;47.66
9861;DHT22;4969;52.304;4.968;2022-09-21T14:56:50;18.04;48.99
9861;DHT22;4969;52.304;4.968;2022-09-21T14:59:31;17.93;49.99
9861;DHT22;4969;52.304;4.968;2022-09-21T15:02:02;17.87;50.74
9861;DHT22;4969;52.304;4.968;2022-09-21T15:04:59;17.85;53.29
9861;DHT22;4969;52.304;4.968;2022-09-21T15:07:37;17.82;52.94
9861;DHT22;4969;52.304;4.968;2022-09-21T15:10:27;17.74;52.38
9861;DHT22;4969;52.304;4.968;2022-09-21T15:13:26;17.67;52.82
9861;DHT22;4969;52.304;4.968;2022-09-21T15:16:16;17.59;52.18
9861;DHT22;4969;52.304;4.968;2022-09-21T15:18:47;17.61;52.82
9861;DHT22;4969;52.304;4.968;2022-09-21T15:21:22;17.57;50.06
9861;DHT22;4969;52.304;4.968;2022-09-21T15:23:51;17.55;51.20
9861;DHT22;4969;52.304;4.968;2022-09-21T15:26:20;17.49;50.30
9861;DHT22;4969;52.304;4.968;2022-09-21T15:28:53;17.48;51.41
9861;DHT22;4969;52.304;4.968;2022-09-21T15:31:22;17.49;51.85
9861;DHT22;4969;52.304;4.968;2022-09-21T15:33:50;17.57;51.92
9861;DHT22;4969;52.304;4.968;2022-09-21T15:36:22;17.59;50.06
9861;DHT22;4969;52.304;4.968;2022-09-21T15:38:50;17.55;50.77
9861;DHT22;4969;52.304;4.968;2022-09-21T15:41:39;17.47;50.73
9861;DHT22;4969;52.304;4.968;2022-09-21T15:44:12;17.42;50.93
9861;DHT22;4969;52.304;4.968;2022-09-21T15:46:42;17.34;51.23
9861;DHT22;4969;52.304;4.968;2022-09-21T15:49:11;17.28;50.90
9861;DHT22;4969;52.304;4.968;2022-09-21T15:51:41;17.27;51.47
9861;DHT22;4969;52.304;4.968;2022-09-21T15:54:21;17.61;54.61
9861;DHT22;4969;52.304;4.968;2022-09-21T15:56:48;18.13;55.43
9861;DHT22;4969;52.304;4.968;2022-09-21T15:59:18;18.37;54.79
9861;DHT22;4969;52.304;4.968;2022-09-21T16:01:48;18.34;52.42
9861;DHT22;4969;52.304;4.968;2022-09-21T16:04:16;18.14;52.82
9861;DHT22;4969;52.304;4.968;2022-09-21T16:06:47;18.13;54.35
9861;DHT22;4969;52.304;4.968;2022-09-21T16:09:40;18.12;53.86
9861;DHT22;4969;52.304;4.968;2022-09-21T16:12:36;18.03;52.79
9861;DHT22;4969;52.304;4.968;2022-09-21T16:15:06;17.99;55.01
9861;DHT22;4969;52.304;4.968;2022-09-21T16:17:37;18.07;53.93
9861;DHT22;4969;52.304;4.968;2022-09-21T16:20:19;17.92;53.87
9861;DHT22;4969;52.304;4.968;2022-09-21T16:22:49;17.76;55.09
9861;DHT22;4969;52.304;4.968;2022-09-21T16:25:26;17.58;55.67
9861;DHT22;4969;52.304;4.968;2022-09-21T16:27:56;17.38;56.10
9861;DHT22;4969;52.304;4.968;2022-09-21T16:30:44;17.54;56.58
9861;DHT22;4969;52.304;4.968;2022-09-21T16:33:38;17.65;57.01
9861;DHT22;4969;52.304;4.968;2022-09-21T16:36:34;17.83;57.33
9861;DHT22;4969;52.304;4.968;2022-09-21T16:39:02;17.97;59.16
9861;DHT22;4969;52.304;4.968;2022-09-21T16:41:33;18.14;59.72
9861;DHT22;4969;52.304;4.968;2022-09-21T16:44:00;18.12;59.47
9861;DHT22;4969;52.304;4.968;2022-09-21T16:46:27;18.09;60.11
9861;DHT22;4969;52.304;4.968;2022-09-21T16:48:57;17.97;58.90
9861;DHT22;4969;52.304;4.968;2022-09-21T16:51:25;17.64;59.12